sensor_id;sensor_type;location;lat;lon;timestamp;pressure;altitude;pressure_sealevel;temperature;humidity
22862;BME280;11598;50.652;6.172;2023-02-01T00:07:17;96923.03;;;2.86;100.00
22862;BME280;11598;50.652;6.172;2023-02-01T00:17:17;96929.00;;;2.87;100.00
22862;BME280;11598;50.652;6.172;2023-02-01T00:27:17;96922.22;;;2.86;100.00
22862;BME280;11598;50.652;6.172;2023-02-01T00:37:20;96910.28;;;2.85;100.00
22862;BME280;11598;50.652;6.172;2023-02-01T00:47:21;96909.66;;;2.78;100.00
22862;BME280;11598;50.652;6.172;2023-02-01T00:57:22;96912.31;;;2.75;100.00
22862;BME280;11598;50.652;6.172;2023-02-01T01:07:22;96914.13;;;2.73;100.00
22862;BME280;11598;50.652;6.172;2023-02-01T01:17:22;96886.94;;;2.67;100.00
22862;BME280;11598;50.652;6.172;2023-02-01T01:27:23;96854.66;;;2.62;100.00
22862;BME280;11598;50.652;6.172;2023-02-01T01:37:25;96872.84;;;2.56;100.00
22862;BME280;11598;50.652;6.172;2023-02-01T01:47:28;96896.91;;;2.51;100.00
22862;BME280;11598;50.652;6.172;2023-02-01T01:57:39;96895.25;;;2.50;100.00
22862;BME280;11598;50.652;6.172;2023-02-01T02:07:46;96881.69;;;2.47;100.00
22862;BME280;11598;50.652;6.172;2023-02-01T02:18:05;96863.94;;;2.42;100.00
22862;BME280;11598;50.652;6.172;2023-02-01T02:38:58;96878.78;;;2.32;100.00
22862;BME280;11598;50.652;6.172;2023-02-01T02:49:11;96867.66;;;2.33;100.00
22862;BME280;11598;50.652;6.172;2023-02-01T02:59:14;96868.19;;;2.42;100.00
22862;BME280;11598;50.652;6.172;2023-02-01T03:09:36;96874.63;;;2.53;100.00
22862;BME280;11598;50.652;6.172;2023-02-01T03:19:40;96863.25;;;2.61;100.00
22862;BME280;11598;50.652;6.172;2023-02-01T03:30:08;96861.47;;;2.63;100.00
22862;BME280;11598;50.652;6.172;2023-02-01T03:40:11;96872.66;;;2.60;100.00
22862;BME280;11598;50.652;6.172;2023-02-01T03:50:17;96864.34;;;2.53;100.00
22862;BME280;11598;50.652;6.172;2023-02-01T04:00:22;96862.19;;;2.43;100.00
22862;BME280;11598;50.652;6.172;2023-02-01T04:10:23;96858.56;;;2.23;100.00
22862;BME280;11598;50.652;6.172;2023-02-01T04:20:24;96850.59;;;2.07;100.00
22862;BME280;11598;50.652;6.172;2023-02-01T04:30:25;96871.09;;;1.82;100.00
22862;BME280;11598;50.652;6.172;2023-02-01T04:40:26;96875.22;;;1.60;100.00
22862;BME280;11598;50.652;6.172;2023-02-01T04:50:26;96878.81;;;1.54;100.00
22862;BME280;11598;50.652;6.172;2023-02-01T05:00:27;96878.09;;;1.51;100.00
22862;BME280;11598;50.652;6.172;2023-02-01T05:10:27;96859.56;;;1.42;100.00
22862;BME280;11598;50.652;6.172;2023-02-01T05:20:28;96868.47;;;1.31;100.00
22862;BME280;11598;50.652;6.172;2023-02-01T05:30:28;96864.38;;;1.25;100.00
22862;BME280;11598;50.652;6.172;2023-02-01T05:40:28;96865.50;;;1.16;100.00
22862;BME280;11598;50.652;6.172;2023-02-01T05:50:29;96855.56;;;1.05;100.00
22862;BME280;11598;50.652;6.172;2023-02-01T06:00:29;96872.88;;;0.97;100.00
22862;BME280;11598;50.652;6.172;2023-02-01T06:10:30;96859.69;;;1.11;100.00
22862;BME280;11598;50.652;6.172;2023-02-01T06:20:30;96850.94;;;1.18;100.00
22862;BME280;11598;50.652;6.172;2023-02-01T06:30:31;96863.81;;;1.15;100.00
22862;BME280;11598;50.652;6.172;2023-02-01T06:40:31;96874.13;;;1.12;100.00
22862;BME280;11598;50.652;6.172;2023-02-01T06:50:32;96885.88;;;1.19;100.00
22862;BME280;11598;50.652;6.172;2023-02-01T07:00:34;96885.97;;;1.16;100.00
22862;BME280;11598;50.652;6.172;2023-02-01T07:10:35;96877.66;;;1.08;100.00
22862;BME280;11598;50.652;6.172;2023-02-01T07:20:35;96908.97;;;1.18;100.00
22862;BME280;11598;50.652;6.172;2023-02-01T07:30:35;96903.59;;;1.25;100.00
22862;BME280;11598;50.652;6.172;2023-02-01T07:40:36;96905.97;;;1.32;100.00
22862;BME280;11598;50.652;6.172;2023-02-01T07:50:36;96904.13;;;1.37;100.00
22862;BME280;11598;50.652;6.172;2023-02-01T08:00:36;96905.66;;;1.42;100.00
22862;BME280;11598;50.652;6.172;2023-02-01T08:11:01;96905.81;;;1.36;100.00
22862;BME280;11598;50.652;6.172;2023-02-01T08:21:22;96908.38;;;1.36;100.00
22862;BME280;11598;50.652;6.172;2023-02-01T08:31:25;96907.81;;;1.55;100.00
22862;BME280;11598;50.652;6.172;2023-02-01T08:41:29;96937.28;;;1.68;100.00
22862;BME280;11598;50.652;6.172;2023-02-01T08:51:29;96943.09;;;1.73;100.00
22862;BME280;11598;50.652;6.172;2023-02-01T09:01:29;96956.84;;;1.71;100.00
22862;BME280;11598;50.652;6.172;2023-02-01T09:11:30;96954.31;;;1.69;100.00
22862;BME280;11598;50.652;6.172;2023-02-01T09:21:30;96955.06;;;1.73;100.00
22862;BME280;11598;50.652;6.172;2023-02-01T09:31:31;96952.09;;;1.86;100.00
22862;BME280;11598;50.652;6.172;2023-02-01T09:51:43;96940.59;;;1.98;100.00
22862;BME280;11598;50.652;6.172;2023-02-01T10:01:45;96918.34;;;2.00;100.00
22862;BME280;11598;50.652;6.172;2023-02-01T10:12:12;96923.00;;;2.14;100.00
22862;BME280;11598;50.652;6.172;2023-02-01T10:32:42;96932.63;;;2.58;100.00
22862;BME280;11598;50.652;6.172;2023-02-01T10:42:42;96925.09;;;2.77;100.00
22862;BME280;11598;50.652;6.172;2023-02-01T11:02:51;96918.56;;;2.91;100.00
22862;BME280;11598;50.652;6.172;2023-02-01T11:12:53;96916.78;;;2.93;100.00
22862;BME280;11598;50.652;6.172;2023-02-01T11:22:55;96901.88;;;3.03;100.00
22862;BME280;11598;50.652;6.172;2023-02-01T11:32:57;96888.63;;;3.15;100.00
22862;BME280;11598;50.652;6.172;2023-02-01T11:43:26;96892.97;;;3.13;100.00
22862;BME280;11598;50.652;6.172;2023-02-01T11:53:49;96863.94;;;3.33;100.00
22862;BME280;11598;50.652;6.172;2023-02-01T12:25:16;96849.97;;;3.83;100.00
22862;BME280;11598;50.652;6.172;2023-02-01T12:45:39;96847.97;;;3.69;100.00
22862;BME280;11598;50.652;6.172;2023-02-01T12:55:48;96830.19;;;3.65;100.00
22862;BME280;11598;50.652;6.172;2023-02-01T13:05:55;96829.88;;;3.50;100.00
22862;BME280;11598;50.652;6.172;2023-02-01T13:26:03;96834.16;;;3.29;100.00
22862;BME280;11598;50.652;6.172;2023-02-01T13:46:10;96813.66;;;3.28;100.00
22862;BME280;11598;50.652;6.172;2023-02-01T13:56:19;96803.41;;;3.28;100.00
22862;BME280;11598;50.652;6.172;2023-02-01T14:16:25;96823.63;;;3.35;100.00
22862;BME280;11598;50.652;6.172;2023-02-01T14:26:45;96819.22;;;3.39;100.00
22862;BME280;11598;50.652;6.172;2023-02-01T14:36:57;96830.31;;;3.39;100.00
22862;BME280;11598;50.652;6.172;2023-02-01T14:47:09;96830.28;;;3.41;100.00
22862;BME280;11598;50.652;6.172;2023-02-01T14:57:15;96838.69;;;3.45;100.00
22862;BME280;11598;50.652;6.172;2023-02-01T15:07:18;96837.66;;;3.49;100.00
22862;BME280;11598;50.652;6.172;2023-02-01T15:17:27;96838.53;;;3.48;100.00
22862;BME280;11598;50.652;6.172;2023-02-01T15:27:33;96835.97;;;3.48;100.00
22862;BME280;11598;50.652;6.172;2023-02-01T15:37:34;96829.38;;;3.42;100.00
22862;BME280;11598;50.652;6.172;2023-02-01T15:47:34;96836.78;;;3.28;100.00
22862;BME280;11598;50.652;6.172;2023-02-01T15:57:38;96845.06;;;3.12;100.00
22862;BME280;11598;50.652;6.172;2023-02-01T16:07:40;96845.53;;;3.00;100.00
22862;BME280;11598;50.652;6.172;2023-02-01T16:17:53;96867.25;;;2.91;100.00
22862;BME280;11598;50.652;6.172;2023-02-01T16:27:54;96879.53;;;2.83;100.00
22862;BME280;11598;50.652;6.172;2023-02-01T16:37:54;96891.72;;;2.78;100.00
22862;BME280;11598;50.652;6.172;2023-02-01T16:47:56;96904.63;;;2.75;100.00
22862;BME280;11598;50.652;6.172;2023-02-01T16:57:57;96915.78;;;2.74;100.00
22862;BME280;11598;50.652;6.172;2023-02-01T17:08:02;96926.06;;;2.74;100.00
22862;BME280;11598;50.652;6.172;2023-02-01T17:18:05;96931.19;;;2.74;100.00
22862;BME280;11598;50.652;6.172;2023-02-01T17:28:06;96929.44;;;2.74;100.00
22862;BME280;11598;50.652;6.172;2023-02-01T17:38:11;96945.63;;;2.77;100.00
22862;BME280;11598;50.652;6.172;2023-02-01T17:48:11;96950.75;;;2.77;100.00
22862;BME280;11598;50.652;6.172;2023-02-01T17:58:13;96946.53;;;2.75;100.00
22862;BME280;11598;50.652;6.172;2023-02-01T18:08:14;96945.63;;;2.77;100.00
22862;BME280;11598;50.652;6.172;2023-02-01T18:18:14;96954.31;;;2.72;100.00
22862;BME280;11598;50.652;6.172;2023-02-01T18:28:15;96956.06;;;2.72;100.00
22862;BME280;11598;50.652;6.172;2023-02-01T18:38:15;96973.91;;;2.75;100.00
22862;BME280;11598;50.652;6.172;2023-02-01T18:48:17;96971.25;;;2.78;100.00
22862;BME280;11598;50.652;6.172;2023-02-01T18:58:18;96961.81;;;2.79;100.00
22862;BME280;11598;50.652;6.172;2023-02-01T19:08:19;96977.09;;;2.82;100.00
22862;BME280;11598;50.652;6.172;2023-02-01T19:18:19;96961.66;;;2.83;100.00
22862;BME280;11598;50.652;6.172;2023-02-01T19:28:19;96960.69;;;2.86;100.00
22862;BME280;11598;50.652;6.172;2023-02-01T19:38:20;96963.28;;;2.86;100.00
22862;BME280;11598;50.652;6.172;2023-02-01T19:48:20;96959.72;;;2.90;100.00
22862;BME280;11598;50.652;6.172;2023-02-01T19:58:20;96948.53;;;2.91;100.00
22862;BME280;11598;50.652;6.172;2023-02-01T20:08:21;96953.59;;;2.94;100.00
22862;BME280;11598;50.652;6.172;2023-02-01T20:18:23;96958.59;;;2.97;100.00
22862;BME280;11598;50.652;6.172;2023-02-01T20:28:23;96951.69;;;2.99;100.00
22862;BME280;11598;50.652;6.172;2023-02-01T20:38:23;96947.38;;;3.00;100.00
22862;BME280;11598;50.652;6.172;2023-02-01T20:48:24;96940.50;;;3.00;100.00
22862;BME280;11598;50.652;6.172;2023-02-01T20:58:25;96955.03;;;3.01;100.00
22862;BME280;11598;50.652;6.172;2023-02-01T21:08:27;96937.91;;;3.02;100.00
22862;BME280;11598;50.652;6.172;2023-02-01T21:18:28;96934.44;;;3.03;100.00
22862;BME280;11598;50.652;6.172;2023-02-01T21:28:28;96942.09;;;3.04;100.00
22862;BME280;11598;50.652;6.172;2023-02-01T21:38:29;96950.50;;;3.08;100.00
22862;BME280;11598;50.652;6.172;2023-02-01T21:48:29;96969.19;;;3.11;100.00
22862;BME280;11598;50.652;6.172;2023-02-01T21:58:29;96970.81;;;3.14;100.00
22862;BME280;11598;50.652;6.172;2023-02-01T22:08:33;96980.19;;;3.15;100.00
22862;BME280;11598;50.652;6.172;2023-02-01T22:18:34;96978.34;;;3.18;100.00
22862;BME280;11598;50.652;6.172;2023-02-01T22:28:36;96971.44;;;3.21;100.00
22862;BME280;11598;50.652;6.172;2023-02-01T22:38:36;96978.22;;;3.22;100.00
22862;BME280;11598;50.652;6.172;2023-02-01T22:48:38;96979.84;;;3.24;100.00
22862;BME280;11598;50.652;6.172;2023-02-01T22:58:39;97004.66;;;3.25;100.00
22862;BME280;11598;50.652;6.172;2023-02-01T23:08:39;97002.88;;;3.27;100.00
22862;BME280;11598;50.652;6.172;2023-02-01T23:18:40;97007.91;;;3.29;100.00
22862;BME280;11598;50.652;6.172;2023-02-01T23:28:41;96984.81;;;3.29;100.00
22862;BME280;11598;50.652;6.172;2023-02-01T23:38:43;97003.56;;;3.31;100.00
22862;BME280;11598;50.652;6.172;2023-02-01T23:48:45;97030.94;;;3.32;100.00
22862;BME280;11598;50.652;6.172;2023-02-01T23:58:46;97016.38;;;3.32;100.00
